createdAt,value
2022-09-05T00:02:03.496Z,75.70
2022-09-05T00:04:49.019Z,76.00
2022-09-05T00:07:59.677Z,75.62
2022-09-05T00:11:12.736Z,74.36
2022-09-05T00:13:44.941Z,74.51
2022-09-05T00:16:40.452Z,75.30
2022-09-05T00:24:20.641Z,75.55
2022-09-05T00:24:36.937Z,76.01
2022-09-05T00:26:04.338Z,75.38
2022-09-05T00:28:53.464Z,75.39
2022-09-05T00:31:53.834Z,75.74
2022-09-05T00:34:54.231Z,75.24
2022-09-05T00:37:35.584Z,75.54
2022-09-05T00:40:33.726Z,74.47
2022-09-05T00:43:24.131Z,74.16
2022-09-05T00:45:55.052Z,74.81
2022-09-05T00:48:47.372Z,74.07
2022-09-05T00:51:28.594Z,73.59
2022-09-05T00:54:15.814Z,73.51
2022-09-05T00:57:03.967Z,74.41
2022-09-05T01:00:14.930Z,76.04
2022-09-05T01:03:22.300Z,76.67
2022-09-05T01:05:58.440Z,76.27
2022-09-05T01:08:47.482Z,77.50
2022-09-05T01:11:27.786Z,77.23
2022-09-05T01:14:18.830Z,77.41
2022-09-05T01:17:04.762Z,78.18
2022-09-05T01:20:04.777Z,78.75
2022-09-05T01:23:08.737Z,77.69
2022-09-05T01:26:00.185Z,76.89
2022-09-05T01:29:17.314Z,76.94
2022-09-05T01:32:01.527Z,77.25
2022-09-05T01:34:57.767Z,75.85
2022-09-05T01:37:49.249Z,74.74
2022-09-05T01:40:43.553Z,74.88
2022-09-05T01:43:41.221Z,76.19
2022-09-05T01:46:36.172Z,75.88
2022-09-05T01:49:05.625Z,76.37
2022-09-05T01:52:08.154Z,76.18
2022-09-05T01:54:56.045Z,75.51
2022-09-05T01:57:38.627Z,75.46
2022-09-05T02:04:40.559Z,75.06
2022-09-05T02:07:40.667Z,74.92
2022-09-05T02:10:22.607Z,75.02
2022-09-05T02:13:03.106Z,75.45
2022-09-05T02:16:08.733Z,75.85
2022-09-05T02:18:58.542Z,76.69
2022-09-05T02:21:58.356Z,76.48
2022-09-05T02:24:37.711Z,76.09
2022-09-05T02:28:03.768Z,74.92
2022-09-05T02:30:23.422Z,76.71
2022-09-05T02:33:10.974Z,75.65
2022-09-05T02:35:54.801Z,77.15
2022-09-05T02:41:32.038Z,75.69
2022-09-05T02:45:10.981Z,75.73
2022-09-05T02:45:17.796Z,75.99
2022-09-05T02:48:12.705Z,75.94
2022-09-05T02:57:30.442Z,75.55
2022-09-05T02:57:33.107Z,74.89
2022-09-05T02:57:40.791Z,74.73
2022-09-05T03:00:01.757Z,74.37
2022-09-05T03:02:42.684Z,74.69
2022-09-05T03:05:19.459Z,75.42
2022-09-05T03:07:54.301Z,74.21
2022-09-05T03:10:53.195Z,75.88
2022-09-05T03:13:36.531Z,74.88
2022-09-05T03:16:52.055Z,76.78
2022-09-05T03:19:20.139Z,77.08
2022-09-05T03:22:10.677Z,77.38
2022-09-05T03:25:01.898Z,83.35
2022-09-05T03:28:08.394Z,85.65
2022-09-05T03:30:54.441Z,84.60
2022-09-05T03:33:37.103Z,81.70
2022-09-05T03:36:30.806Z,83.34
2022-09-05T03:39:09.074Z,86.28
2022-09-05T03:41:55.513Z,84.40
2022-09-05T06:09:48.008Z,82.37
2022-09-05T06:16:32.513Z,83.25
2022-09-05T06:41:38.501Z,72.89
2022-09-05T06:47:56.907Z,76.76
2022-09-05T06:51:08.369Z,75.34
2022-09-05T06:54:13.027Z,73.40
2022-09-05T06:57:00.975Z,66.53
2022-09-05T06:59:55.100Z,61.04
2022-09-05T07:03:06.549Z,56.59
2022-09-05T07:05:55.654Z,56.58
2022-09-05T07:09:42.350Z,54.97
2022-09-05T07:14:02.535Z,56.04
2022-09-05T07:25:27.408Z,50.93
2022-09-05T07:31:37.648Z,49.78
2022-09-05T07:34:33.109Z,50.39
2022-09-05T07:37:27.426Z,45.90
2022-09-05T07:56:59.519Z,43.10
2022-09-05T07:58:17.392Z,40.86
2022-09-05T08:01:15.518Z,37.21
2022-09-05T08:05:07.618Z,40.07
2022-09-05T08:08:10.720Z,43.40
2022-09-05T08:12:27.661Z,38.92
2022-09-05T08:16:02.895Z,43.29
2022-09-05T08:18:30.059Z,44.43
2022-09-05T08:21:27.134Z,44.09
2022-09-05T08:24:49.628Z,38.06
2022-09-05T08:27:45.481Z,37.44
2022-09-05T08:30:26.852Z,40.09
2022-09-05T08:56:17.005Z,44.53
2022-09-05T09:00:20.782Z,46.18
2022-09-05T09:08:13.223Z,48.99
2022-09-05T09:10:49.331Z,50.83
2022-09-05T10:45:03.762Z,47.78
2022-09-05T10:48:11.506Z,46.59
2022-09-05T10:50:49.607Z,47.58
2022-09-05T10:53:52.003Z,46.24
2022-09-05T10:57:35.680Z,46.12
2022-09-05T11:02:21.202Z,46.21
2022-09-05T11:03:55.840Z,50.14
2022-09-05T11:06:46.275Z,49.67
2022-09-05T11:09:19.604Z,48.79
2022-09-05T11:12:01.170Z,47.86
2022-09-05T11:14:56.462Z,51.27
2022-09-05T11:20:54.149Z,49.54
2022-09-05T11:23:59.470Z,50.36
2022-09-05T11:27:25.101Z,51.37
2022-09-05T11:30:45.548Z,50.39
2022-09-05T11:50:50.570Z,46.19
2022-09-05T11:50:52.676Z,52.14
2022-09-05T12:21:46.968Z,46.81
2022-09-05T12:41:36.240Z,45.30
2022-09-05T12:44:38.039Z,46.41
2022-09-05T12:51:45.123Z,50.38
2022-09-05T12:54:24.816Z,45.45
2022-09-05T13:01:08.112Z,46.20
2022-09-05T13:08:59.405Z,42.97
2022-09-05T13:22:11.829Z,43.47
2022-09-05T13:25:27.250Z,43.99
2022-09-05T13:28:11.876Z,45.43
2022-09-05T13:38:01.630Z,44.30
2022-09-05T13:56:40.301Z,42.94
2022-09-05T14:12:45.722Z,46.05
2022-09-05T14:15:42.970Z,49.13
2022-09-05T14:18:55.538Z,47.47
2022-09-05T14:21:27.883Z,47.01
2022-09-05T14:24:27.463Z,47.98
2022-09-05T14:27:03.118Z,47.28
2022-09-05T14:30:35.566Z,47.98
2022-09-05T14:37:43.566Z,46.06
2022-09-05T14:37:43.958Z,45.11
2022-09-05T14:40:46.361Z,45.00
2022-09-05T14:43:56.239Z,46.96
2022-09-05T14:46:38.703Z,46.91
2022-09-05T14:49:18.580Z,44.50
2022-09-05T14:51:48.542Z,43.94
2022-09-05T14:59:34.011Z,44.77
2022-09-05T15:02:57.900Z,44.61
2022-09-05T15:04:35.397Z,45.10
2022-09-05T15:07:15.946Z,43.55
2022-09-05T15:12:21.379Z,43.69
2022-09-05T15:12:45.924Z,43.17
2022-09-05T15:15:43.438Z,42.74
2022-09-05T15:18:40.413Z,44.02
2022-09-05T15:21:35.268Z,42.87
2022-09-05T15:24:36.900Z,43.75
2022-09-05T15:27:05.495Z,43.52
2022-09-05T15:29:35.383Z,43.41
2022-09-05T15:32:24.960Z,42.53
2022-09-05T15:35:09.275Z,42.61
2022-09-05T15:37:45.150Z,41.96
2022-09-05T15:40:23.106Z,41.79
2022-09-05T15:42:58.994Z,44.14
2022-09-05T15:46:08.490Z,43.79
2022-09-05T15:48:48.347Z,43.06
2022-09-05T15:52:27.298Z,40.90
2022-09-05T15:55:10.667Z,44.38
2022-09-05T15:57:41.374Z,45.57
2022-09-05T16:00:30.860Z,45.21
2022-09-05T16:03:40.956Z,43.88
2022-09-05T16:10:36.715Z,44.30
2022-09-05T16:10:44.907Z,46.63
2022-09-05T16:12:48.312Z,45.44
2022-09-05T16:19:25.019Z,43.88
2022-09-05T16:23:25.480Z,43.65
2022-09-05T16:23:30.259Z,44.69
2022-09-05T16:24:59.465Z,44.70
2022-09-05T16:27:44.262Z,44.40
2022-09-05T16:30:38.230Z,45.05
2022-09-05T16:33:29.666Z,44.99
2022-09-05T16:36:15.998Z,42.53
2022-09-05T16:39:01.537Z,47.84
2022-09-05T16:41:53.500Z,49.52
2022-09-05T16:45:58.692Z,49.52
2022-09-05T16:48:31.487Z,49.42
2022-09-05T16:51:37.975Z,49.10
2022-09-05T16:59:02.562Z,48.22
2022-09-05T17:02:55.765Z,52.19
2022-09-05T17:06:04.626Z,52.57
2022-09-05T17:16:30.748Z,56.92
2022-09-05T17:20:05.667Z,57.11
2022-09-05T17:29:32.368Z,56.28
2022-09-05T17:34:24.627Z,58.18
2022-09-05T17:37:32.514Z,56.90
2022-09-05T19:10:36.907Z,65.32
2022-09-05T20:18:27.191Z,65.86
2022-09-05T21:28:47.271Z,69.12
2022-09-05T22:56:01.747Z,73.40
2022-09-05T23:02:34.179Z,73.46
2022-09-05T23:05:09.236Z,73.33
2022-09-05T23:09:09.560Z,73.52
2022-09-05T23:11:42.151Z,73.91
2022-09-05T23:14:29.525Z,73.65
2022-09-05T23:16:57.596Z,73.37
2022-09-05T23:19:32.466Z,72.84
2022-09-05T23:22:00.405Z,72.69
2022-09-05T23:33:24.267Z,72.14
2022-09-05T23:36:03.849Z,72.99
2022-09-05T23:38:32.386Z,73.26
2022-09-05T23:41:06.097Z,73.26
2022-09-05T23:44:02.007Z,73.06
2022-09-05T23:46:30.130Z,72.99
2022-09-05T23:48:58.549Z,73.10
2022-09-05T23:51:27.461Z,72.57
2022-09-05T23:53:59.836Z,71.99
2022-09-05T23:56:32.327Z,73.52
2022-09-05T23:59:00.428Z,72.27
